Terminal Aerodrome Forecast
Issued by NWS

Current Version | Previous Version | Text Only | Print | Product List | Glossary On
Versions: 1 2 3 4 5 6 7 8 9 10 11 12
000
FTUS45 KRIW 282300
TAFRKS
TAF
KRKS 282324Z 2900/2924 08010KT P6SM FEW100 BKN150
     FM290300 VRB10G15KT P6SM VCSH BKN100
     FM290900 VRB06KT P6SM VCSH SCT060 OVC100
     FM292000 04011KT P6SM VCTS SCT030CB BKN050=

USA.gov is the U.S. government's official web portal to all federal, state and local government web resources and services.